createdAt,value
2022-09-09T00:02:23.466Z,56.74
2022-09-09T00:04:56.834Z,56.92
2022-09-09T00:07:45.758Z,56.66
2022-09-09T00:10:28.685Z,57.49
2022-09-09T00:13:26.451Z,56.33
2022-09-09T00:16:11.829Z,56.16
2022-09-09T00:19:29.240Z,56.11
2022-09-09T00:22:22.147Z,56.44
2022-09-09T00:24:56.989Z,56.53
2022-09-09T00:27:43.161Z,57.62
2022-09-09T00:30:25.930Z,56.12
2022-09-09T00:33:05.054Z,56.04
2022-09-09T00:35:40.069Z,56.81
2022-09-09T00:38:18.992Z,55.73
2022-09-09T00:40:58.176Z,56.21
2022-09-09T00:43:38.375Z,55.82
2022-09-09T00:46:43.999Z,55.34
2022-09-09T00:49:23.454Z,55.67
2022-09-09T00:52:06.833Z,55.37
2022-09-09T00:55:09.207Z,54.62
2022-09-09T00:57:40.629Z,54.45
2022-09-09T01:00:27.582Z,54.29
2022-09-09T01:03:24.425Z,54.63
2022-09-09T01:06:05.650Z,54.38
2022-09-09T01:09:03.343Z,54.83
2022-09-09T01:12:10.344Z,54.60
2022-09-09T01:14:40.327Z,55.26
2022-09-09T01:17:37.878Z,54.32
2022-09-09T01:20:32.346Z,54.60
2022-09-09T01:23:23.466Z,54.46
2022-09-09T01:26:13.447Z,54.64
2022-09-09T01:28:47.024Z,54.23
2022-09-09T01:31:29.833Z,54.63
2022-09-09T01:33:59.189Z,54.78
2022-09-09T01:36:53.387Z,53.89
2022-09-09T01:39:24.326Z,54.59
2022-09-09T01:42:02.093Z,53.81
2022-09-09T01:44:33.791Z,53.98
2022-09-09T01:47:05.598Z,53.54
2022-09-09T01:49:36.257Z,53.31
2022-09-09T01:52:13.841Z,53.35
2022-09-09T01:54:43.885Z,52.47
2022-09-09T01:57:23.450Z,53.74
2022-09-09T02:00:11.847Z,53.34
2022-09-09T02:02:52.310Z,52.99
2022-09-09T02:05:32.948Z,52.39
2022-09-09T02:08:24.506Z,52.46
2022-09-09T02:11:21.052Z,52.39
2022-09-09T02:14:30.750Z,52.47
2022-09-09T02:17:05.825Z,52.92
2022-09-09T02:20:01.038Z,52.65
2022-09-09T02:22:55.457Z,53.05
2022-09-09T02:25:45.373Z,52.66
2022-09-09T02:28:27.452Z,52.31
2022-09-09T02:30:58.353Z,51.44
2022-09-09T02:33:45.454Z,52.21
2022-09-09T02:36:25.315Z,50.80
2022-09-09T02:38:56.181Z,51.83
2022-09-09T02:44:29.762Z,52.12
2022-09-09T02:47:33.702Z,51.96
2022-09-09T02:50:30.362Z,51.33
2022-09-09T02:53:27.960Z,51.82
2022-09-09T02:56:02.371Z,52.02
2022-09-09T02:58:36.734Z,50.43
2022-09-09T03:01:14.455Z,50.18
2022-09-09T03:03:47.512Z,50.85
2022-09-09T03:06:19.963Z,50.38
2022-09-09T03:08:57.499Z,50.20
2022-09-09T03:11:32.650Z,49.66
2022-09-09T03:14:08.203Z,49.32
2022-09-09T03:16:40.623Z,48.68
2022-09-09T03:19:11.079Z,48.88
2022-09-09T03:21:41.474Z,47.74
2022-09-09T03:24:11.851Z,48.27
2022-09-09T03:26:42.817Z,47.83
2022-09-09T03:29:17.296Z,48.94
2022-09-09T03:31:48.144Z,47.29
2022-09-09T03:34:18.666Z,48.03
2022-09-09T03:36:54.214Z,48.60
2022-09-09T03:39:24.266Z,47.91
2022-09-09T03:41:54.582Z,46.52
2022-09-09T03:44:25.709Z,48.77
2022-09-09T03:46:57.984Z,48.04
2022-09-09T03:49:29.221Z,48.54
2022-09-09T03:52:02.882Z,48.50
2022-09-09T03:54:36.169Z,47.73
2022-09-09T03:57:07.474Z,47.96
2022-09-09T03:59:37.523Z,47.66
2022-09-09T04:02:08.506Z,44.90
2022-09-09T04:04:41.959Z,45.83
2022-09-09T04:07:14.506Z,45.88
2022-09-09T04:09:44.958Z,45.48
2022-09-09T04:12:17.690Z,44.99
2022-09-09T04:14:52.609Z,46.47
2022-09-09T04:17:23.049Z,46.41
2022-09-09T04:19:53.550Z,47.84
2022-09-09T04:22:25.211Z,47.39
2022-09-09T04:24:55.703Z,46.87
2022-09-09T04:27:33.638Z,46.16
2022-09-09T04:30:04.744Z,46.46
2022-09-09T04:32:41.140Z,46.92
2022-09-09T04:35:11.370Z,46.84
2022-09-09T04:37:44.796Z,46.38
2022-09-09T04:40:19.003Z,46.93
2022-09-09T04:42:53.531Z,46.45
2022-09-09T04:45:29.255Z,46.85
2022-09-09T04:48:03.523Z,45.52
2022-09-09T04:50:34.193Z,45.93
2022-09-09T04:53:07.019Z,47.00
2022-09-09T04:55:39.745Z,46.76
2022-09-09T04:58:10.366Z,48.32
2022-09-09T05:00:40.679Z,45.40
2022-09-09T05:03:11.830Z,45.01
2022-09-09T05:05:41.956Z,44.99
2022-09-09T05:08:12.497Z,45.17
2022-09-09T05:10:44.306Z,46.19
2022-09-09T05:13:15.514Z,46.26
2022-09-09T05:15:54.136Z,45.58
2022-09-09T05:18:26.077Z,46.12
2022-09-09T05:21:07.924Z,45.47
2022-09-09T05:23:38.073Z,47.71
2022-09-09T05:26:11.933Z,46.04
2022-09-09T05:28:45.465Z,46.49
2022-09-09T05:31:17.396Z,45.14
2022-09-09T05:33:57.750Z,45.17
2022-09-09T05:36:32.644Z,45.04
2022-09-09T05:39:16.471Z,44.66
2022-09-09T05:41:49.788Z,44.60
2022-09-09T05:44:21.279Z,45.38
2022-09-09T05:46:52.126Z,44.84
2022-09-09T05:49:22.956Z,44.20
2022-09-09T05:51:56.853Z,44.57
2022-09-09T05:54:27.910Z,44.77
2022-09-09T05:56:59.128Z,44.51
2022-09-09T05:59:37.347Z,43.99
2022-09-09T06:02:13.729Z,45.58
2022-09-09T06:04:49.394Z,44.25
2022-09-09T06:07:41.825Z,44.39
2022-09-09T06:10:19.074Z,43.95
2022-09-09T06:12:59.429Z,45.17
2022-09-09T06:15:35.845Z,43.81
2022-09-09T06:18:07.397Z,43.46
2022-09-09T06:20:38.086Z,44.11
2022-09-09T06:23:08.638Z,44.07
2022-09-09T06:25:39.892Z,44.57
2022-09-09T06:28:10.387Z,44.22
2022-09-09T06:30:40.927Z,44.61
2022-09-09T06:33:11.709Z,45.45
2022-09-09T06:35:41.967Z,43.94
2022-09-09T06:38:14.852Z,44.03
2022-09-09T06:40:46.570Z,44.82
2022-09-09T06:43:17.505Z,44.48
2022-09-09T06:46:10.928Z,45.18
2022-09-09T06:48:54.481Z,44.93
2022-09-09T06:51:32.541Z,42.92
2022-09-09T06:54:05.806Z,43.43
2022-09-09T06:56:42.430Z,44.62
2022-09-09T06:59:19.640Z,44.21
2022-09-09T07:01:55.620Z,43.80
2022-09-09T07:04:27.694Z,43.06
2022-09-09T07:06:58.822Z,43.73
2022-09-09T07:09:30.000Z,43.37
2022-09-09T07:12:02.444Z,43.39
2022-09-09T07:14:39.906Z,43.33
2022-09-09T07:17:15.159Z,43.96
2022-09-09T07:19:46.353Z,43.90
2022-09-09T07:22:19.072Z,43.07
2022-09-09T07:24:52.467Z,43.53
2022-09-09T07:27:24.216Z,43.25
2022-09-09T07:29:56.563Z,43.25
2022-09-09T07:32:32.912Z,44.34
2022-09-09T07:35:03.129Z,43.27
2022-09-09T07:37:37.797Z,42.41
2022-09-09T07:40:09.201Z,42.48
2022-09-09T07:42:41.007Z,43.13
2022-09-09T07:45:12.115Z,43.38
2022-09-09T07:47:45.238Z,43.22
2022-09-09T07:50:15.637Z,43.24
2022-09-09T07:52:46.648Z,42.81
2022-09-09T07:55:17.776Z,43.00
2022-09-09T07:57:49.023Z,43.01
2022-09-09T08:00:19.561Z,43.33
2022-09-09T08:02:56.462Z,43.26
2022-09-09T08:05:27.275Z,43.07
2022-09-09T08:07:59.042Z,43.35
2022-09-09T08:10:29.638Z,43.55
2022-09-09T08:13:17.247Z,43.83
2022-09-09T08:15:47.797Z,43.62
2022-09-09T08:18:18.145Z,44.02
2022-09-09T08:20:48.562Z,44.08
2022-09-09T08:23:18.888Z,43.98
2022-09-09T08:25:51.261Z,44.07
2022-09-09T08:28:22.569Z,44.22
2022-09-09T08:30:55.782Z,44.42
2022-09-09T08:33:27.326Z,43.68
2022-09-09T08:35:57.649Z,43.82
2022-09-09T08:38:27.849Z,43.85
2022-09-09T08:41:09.598Z,44.42
2022-09-09T08:43:39.821Z,43.68
2022-09-09T08:46:26.333Z,45.17
2022-09-09T08:49:25.096Z,44.98
2022-09-09T08:51:57.835Z,44.36
2022-09-09T08:54:51.788Z,45.08
2022-09-09T08:57:33.405Z,44.35
2022-09-09T09:00:03.565Z,43.79
2022-09-09T09:02:43.395Z,44.72
2022-09-09T09:05:29.989Z,45.21
2022-09-09T09:08:19.674Z,44.24
2022-09-09T09:10:56.428Z,45.29
2022-09-09T09:13:34.543Z,44.82
2022-09-09T09:16:35.728Z,45.13
2022-09-09T09:19:12.401Z,44.56
2022-09-09T09:21:51.960Z,45.10
2022-09-09T09:24:44.599Z,45.23
2022-09-09T09:27:30.935Z,45.11
2022-09-09T09:30:22.841Z,44.91
2022-09-09T09:33:39.193Z,45.39
2022-09-09T09:36:10.653Z,45.10
2022-09-09T09:41:47.810Z,45.70
2022-09-09T09:44:29.631Z,46.06
2022-09-09T09:47:15.893Z,45.91
2022-09-09T09:50:01.677Z,45.75
2022-09-09T09:52:39.363Z,45.96
2022-09-09T09:55:20.454Z,45.93
2022-09-09T09:57:50.337Z,45.93
2022-09-09T10:00:33.394Z,45.98
2022-09-09T10:03:38.344Z,46.43
2022-09-09T10:06:09.504Z,47.32
2022-09-09T10:08:54.947Z,46.85
2022-09-09T10:11:56.309Z,46.96
2022-09-09T10:15:01.910Z,46.68
2022-09-09T10:17:41.853Z,47.17
2022-09-09T10:20:27.586Z,46.94
2022-09-09T10:23:27.970Z,47.74
2022-09-09T10:26:16.649Z,48.12
2022-09-09T10:29:10.703Z,48.05
2022-09-09T10:31:55.956Z,48.93
2022-09-09T10:34:50.832Z,48.43
2022-09-09T10:37:27.642Z,49.13
2022-09-09T10:40:07.170Z,47.79
2022-09-09T10:42:39.489Z,49.41
2022-09-09T10:45:36.362Z,49.00
2022-09-09T10:48:45.151Z,48.23
2022-09-09T10:51:30.413Z,48.71
2022-09-09T10:54:35.077Z,48.63
2022-09-09T10:57:20.424Z,48.80
2022-09-09T10:59:55.998Z,49.25
2022-09-09T11:02:42.353Z,48.42
2022-09-09T11:05:30.908Z,49.02
2022-09-09T11:11:06.876Z,50.30
2022-09-09T11:14:22.611Z,49.04
2022-09-09T11:17:05.743Z,49.29
2022-09-09T11:19:45.920Z,50.24
2022-09-09T11:22:51.204Z,49.62
2022-09-09T11:25:45.831Z,49.41
2022-09-09T11:28:39.894Z,49.21
2022-09-09T11:34:10.798Z,50.81
2022-09-09T11:36:58.440Z,51.01
2022-09-09T11:39:51.356Z,50.11
2022-09-09T11:42:26.480Z,50.81
2022-09-09T11:45:05.690Z,50.71
2022-09-09T11:47:42.478Z,50.17
2022-09-09T11:50:36.006Z,51.00
2022-09-09T11:53:31.333Z,50.01
2022-09-09T11:56:12.394Z,50.05
2022-09-09T11:59:02.711Z,50.40
2022-09-09T12:01:54.031Z,49.70
2022-09-09T12:04:46.792Z,50.25
2022-09-09T12:07:45.008Z,50.05
2022-09-09T12:10:38.651Z,49.92
2022-09-09T12:13:23.888Z,49.88
2022-09-09T12:16:02.438Z,51.09
2022-09-09T12:18:53.002Z,50.44
2022-09-09T12:21:51.184Z,50.35
2022-09-09T12:24:42.669Z,50.71
2022-09-09T12:27:51.100Z,50.30
2022-09-09T12:33:16.030Z,51.79
2022-09-09T12:35:54.749Z,51.17
2022-09-09T12:38:41.655Z,50.67
2022-09-09T12:41:27.628Z,51.59
2022-09-09T12:44:22.028Z,50.99
2022-09-09T12:46:55.989Z,51.94
2022-09-09T12:49:40.074Z,51.14
2022-09-09T12:52:30.764Z,51.70
2022-09-09T12:55:10.583Z,52.17
2022-09-09T12:57:45.935Z,52.37
2022-09-09T13:00:29.942Z,52.32
2022-09-09T13:03:19.298Z,51.42
2022-09-09T13:05:49.838Z,52.52
2022-09-09T13:08:23.045Z,52.16
2022-09-09T13:11:12.015Z,51.23
2022-09-09T13:13:52.814Z,52.38
2022-09-09T13:16:31.192Z,53.27
2022-09-09T13:19:37.808Z,52.21
2022-09-09T13:22:46.136Z,51.30
2022-09-09T13:25:24.986Z,53.24
2022-09-09T13:28:02.860Z,52.01
2022-09-09T13:30:42.977Z,52.77
2022-09-09T13:33:36.753Z,53.23
2022-09-09T13:36:16.120Z,51.64
2022-09-09T13:39:09.584Z,51.84
2022-09-09T13:41:51.232Z,52.26
2022-09-09T13:44:35.441Z,52.84
2022-09-09T13:47:19.715Z,52.74
2022-09-09T13:49:56.708Z,53.26
2022-09-09T13:52:39.314Z,53.29
2022-09-09T13:55:15.211Z,53.84
2022-09-09T13:57:56.086Z,52.90
2022-09-09T14:00:33.961Z,53.14
2022-09-09T14:03:04.979Z,53.06
2022-09-09T14:05:41.267Z,54.29
2022-09-09T14:08:25.679Z,53.35
2022-09-09T14:11:02.782Z,53.59
2022-09-09T14:13:49.191Z,54.11
2022-09-09T14:16:24.227Z,53.99
2022-09-09T14:18:55.392Z,53.99
2022-09-09T14:21:39.514Z,54.09
2022-09-09T14:24:10.665Z,54.14
2022-09-09T14:27:01.274Z,54.38
2022-09-09T14:29:38.186Z,54.73
2022-09-09T14:32:20.157Z,54.97
2022-09-09T14:34:56.802Z,55.05
2022-09-09T14:37:29.503Z,55.09
2022-09-09T14:40:00.916Z,55.18
2022-09-09T14:42:33.024Z,55.75
2022-09-09T14:45:04.268Z,55.92
2022-09-09T14:47:38.024Z,54.85
2022-09-09T14:50:13.773Z,54.75
2022-09-09T14:52:48.698Z,55.15
2022-09-09T14:55:20.345Z,54.82
2022-09-09T14:57:54.063Z,55.03
2022-09-09T15:00:29.270Z,54.79
2022-09-09T15:03:05.588Z,55.14
2022-09-09T15:05:39.920Z,55.17
2022-09-09T15:08:13.470Z,54.83
2022-09-09T15:10:51.781Z,55.06
2022-09-09T15:13:28.098Z,55.00
2022-09-09T15:16:00.630Z,55.66
2022-09-09T15:18:38.413Z,55.41
2022-09-09T15:21:09.655Z,55.68
2022-09-09T15:23:40.610Z,55.88
2022-09-09T15:26:11.848Z,55.44
2022-09-09T15:28:43.614Z,55.11
2022-09-09T15:31:33.132Z,53.93
2022-09-09T15:34:04.994Z,55.32
2022-09-09T15:36:54.246Z,54.54
2022-09-09T15:39:25.560Z,55.90
2022-09-09T15:42:00.179Z,55.79
2022-09-09T15:44:48.047Z,55.85
2022-09-09T15:47:18.564Z,53.42
2022-09-09T15:50:01.166Z,55.53
2022-09-09T15:52:36.702Z,55.50
2022-09-09T15:55:21.156Z,56.07
2022-09-09T15:58:07.241Z,55.75
2022-09-09T16:00:40.690Z,55.49
2022-09-09T16:03:16.205Z,56.01
2022-09-09T16:05:51.544Z,56.87
2022-09-09T16:08:22.506Z,56.12
2022-09-09T16:10:57.630Z,56.96
2022-09-09T16:13:31.543Z,57.12
2022-09-09T16:16:07.774Z,56.53
2022-09-09T16:18:48.497Z,55.93
2022-09-09T16:21:20.910Z,57.29
2022-09-09T16:24:02.080Z,56.03
2022-09-09T16:26:35.667Z,56.42
2022-09-09T16:29:11.487Z,56.90
2022-09-09T16:32:01.227Z,57.43
2022-09-09T16:34:41.470Z,56.96
2022-09-09T16:37:17.069Z,57.21
2022-09-09T16:39:54.697Z,57.49
2022-09-09T16:42:31.293Z,57.50
2022-09-09T16:45:05.297Z,57.93
2022-09-09T16:47:38.859Z,57.46
2022-09-09T16:50:09.610Z,57.82
2022-09-09T16:52:40.403Z,57.99
2022-09-09T16:55:15.352Z,58.61
2022-09-09T16:57:46.130Z,58.38
2022-09-09T17:00:21.062Z,58.16
2022-09-09T17:03:04.187Z,57.18
2022-09-09T17:05:35.859Z,58.37
2022-09-09T17:08:08.116Z,57.83
2022-09-09T17:10:56.175Z,58.64
2022-09-09T17:13:27.825Z,58.40
2022-09-09T17:16:03.018Z,58.35
2022-09-09T17:18:45.514Z,58.76
2022-09-09T17:21:21.513Z,58.28
2022-09-09T17:23:52.692Z,58.49
2022-09-09T17:26:24.889Z,59.30
2022-09-09T17:28:59.283Z,57.99
2022-09-09T17:31:31.719Z,57.97
2022-09-09T17:34:02.851Z,59.29
2022-09-09T17:36:35.980Z,58.95
2022-09-09T17:39:07.869Z,58.53
2022-09-09T17:41:42.398Z,57.10
2022-09-09T17:44:13.453Z,58.81
2022-09-09T17:46:49.416Z,58.43
2022-09-09T17:49:20.991Z,58.40
2022-09-09T17:51:51.315Z,58.83
2022-09-09T17:54:23.093Z,58.94
2022-09-09T17:56:53.527Z,58.90
2022-09-09T17:59:27.059Z,58.70
2022-09-09T18:01:57.653Z,58.86
2022-09-09T18:04:31.149Z,58.90
2022-09-09T18:07:03.358Z,59.48
2022-09-09T18:09:34.267Z,59.07
2022-09-09T18:12:05.125Z,59.32
2022-09-09T18:14:39.860Z,59.08
2022-09-09T18:17:13.702Z,59.73
2022-09-09T18:19:51.720Z,59.86
2022-09-09T18:22:25.582Z,59.80
2022-09-09T18:25:05.611Z,59.30
2022-09-09T18:27:38.109Z,59.68
2022-09-09T18:30:11.788Z,59.40
2022-09-09T18:32:43.047Z,59.67
2022-09-09T18:35:13.513Z,59.57
2022-09-09T18:37:43.916Z,60.13
2022-09-09T18:40:14.843Z,60.15
2022-09-09T18:42:45.544Z,59.84
2022-09-09T18:45:16.595Z,59.42
2022-09-09T18:47:49.185Z,60.41
2022-09-09T18:50:20.741Z,60.59
2022-09-09T18:52:51.490Z,60.59
2022-09-09T18:55:22.232Z,60.30
2022-09-09T18:57:53.003Z,59.71
2022-09-09T19:00:23.462Z,60.15
2022-09-09T19:02:57.540Z,60.35
2022-09-09T19:05:31.183Z,60.32
2022-09-09T19:08:06.779Z,60.96
2022-09-09T19:10:43.015Z,59.93
2022-09-09T19:13:13.931Z,60.88
2022-09-09T19:15:47.028Z,60.83
2022-09-09T19:18:20.349Z,60.76
2022-09-09T19:20:50.936Z,60.43
2022-09-09T19:23:24.482Z,60.66
2022-09-09T19:25:55.181Z,61.01
2022-09-09T19:28:32.180Z,60.85
2022-09-09T19:31:17.495Z,59.71
2022-09-09T19:33:51.867Z,60.27
2022-09-09T19:36:22.512Z,60.35
2022-09-09T19:41:40.277Z,61.18
2022-09-09T19:44:18.223Z,60.38
2022-09-09T19:46:48.940Z,58.77
2022-09-09T19:49:22.283Z,60.58
2022-09-09T19:51:53.384Z,61.40
2022-09-09T19:54:26.797Z,61.23
2022-09-09T19:57:00.280Z,61.23
2022-09-09T19:59:31.227Z,60.79
2022-09-09T20:02:01.931Z,61.09
2022-09-09T20:04:32.317Z,61.30
2022-09-09T20:07:02.799Z,61.58
2022-09-09T20:09:35.660Z,61.43
2022-09-09T20:12:09.039Z,61.28
2022-09-09T20:14:41.880Z,61.47
2022-09-09T20:17:12.374Z,61.57
2022-09-09T20:19:43.630Z,60.80
2022-09-09T20:22:14.345Z,61.27
2022-09-09T20:24:45.673Z,61.64
2022-09-09T20:27:16.154Z,61.20
2022-09-09T20:29:48.733Z,61.34
2022-09-09T20:32:19.648Z,61.67
2022-09-09T20:34:50.325Z,61.38
2022-09-09T20:37:22.559Z,60.94
2022-09-09T20:39:54.266Z,61.53
2022-09-09T20:42:26.940Z,61.18
2022-09-09T20:45:02.993Z,61.02
2022-09-09T20:47:34.127Z,61.55
2022-09-09T20:50:05.139Z,61.47
2022-09-09T20:52:38.274Z,61.58
2022-09-09T20:55:12.645Z,61.40
2022-09-09T20:57:42.572Z,61.55
2022-09-09T21:00:13.619Z,61.73
2022-09-09T21:02:47.157Z,61.54
2022-09-09T21:05:20.775Z,62.25
2022-09-09T21:07:55.148Z,61.22
2022-09-09T21:10:26.098Z,61.52
2022-09-09T21:12:59.513Z,61.69
2022-09-09T21:15:29.900Z,59.14
2022-09-09T21:18:01.809Z,61.37
2022-09-09T21:20:33.389Z,61.65
2022-09-09T21:23:03.990Z,61.36
2022-09-09T21:25:37.894Z,61.63
2022-09-09T21:28:09.253Z,61.24
2022-09-09T21:30:44.859Z,62.29
2022-09-09T21:33:15.470Z,61.71
2022-09-09T21:35:49.284Z,61.75
2022-09-09T21:38:23.512Z,61.53
2022-09-09T21:40:55.536Z,61.21
2022-09-09T21:43:26.225Z,61.95
2022-09-09T21:45:58.690Z,61.46
2022-09-09T21:48:28.800Z,61.94
2022-09-09T21:51:04.488Z,62.24
2022-09-09T21:53:35.658Z,61.55
2022-09-09T21:56:10.110Z,61.36
2022-09-09T21:58:45.909Z,61.94
2022-09-09T22:01:28.510Z,61.75
2022-09-09T22:04:01.484Z,61.79
2022-09-09T22:06:32.428Z,61.59
2022-09-09T22:09:03.473Z,61.81
2022-09-09T22:11:34.307Z,61.17
2022-09-09T22:14:05.035Z,61.32
2022-09-09T22:16:36.405Z,61.80
2022-09-09T22:19:11.446Z,62.21
2022-09-09T22:21:42.628Z,61.68
2022-09-09T22:24:14.267Z,61.89
2022-09-09T22:26:44.700Z,59.35
2022-09-09T22:29:17.168Z,62.16
2022-09-09T22:31:48.194Z,62.27
2022-09-09T22:34:22.470Z,62.19
2022-09-09T22:36:53.034Z,61.96
2022-09-09T22:39:26.831Z,62.26
2022-09-09T22:42:03.281Z,62.36
2022-09-09T22:44:36.187Z,61.84
2022-09-09T22:47:07.226Z,62.53
2022-09-09T22:49:39.555Z,59.52
2022-09-09T22:52:14.984Z,61.99
2022-09-09T22:55:00.725Z,61.35
2022-09-09T22:57:32.809Z,62.22
2022-09-09T23:00:04.312Z,62.21
2022-09-09T23:02:40.664Z,61.78
2022-09-09T23:05:15.685Z,61.81
2022-09-09T23:07:46.820Z,61.98
2022-09-09T23:10:18.166Z,62.10
2022-09-09T23:12:53.496Z,61.92
2022-09-09T23:15:24.823Z,61.93
2022-09-09T23:17:59.732Z,62.06
2022-09-09T23:20:31.205Z,61.99
2022-09-09T23:23:02.681Z,61.57
2022-09-09T23:25:33.826Z,61.47
2022-09-09T23:28:05.353Z,61.36
2022-09-09T23:30:36.518Z,61.27
2022-09-09T23:33:10.275Z,60.91
2022-09-09T23:35:41.251Z,60.94
2022-09-09T23:38:17.942Z,60.70
2022-09-09T23:40:49.117Z,60.73
2022-09-09T23:43:19.740Z,60.50
2022-09-09T23:45:52.028Z,60.43
2022-09-09T23:48:28.469Z,60.07
2022-09-09T23:51:07.180Z,60.09
2022-09-09T23:53:39.184Z,59.45
2022-09-09T23:56:14.032Z,60.08
2022-09-09T23:58:54.050Z,59.52
